• Join FlightAware (Why Join?)
  • Login
  • US Flag 
05:04PM EDT


 

Airport Tracker/Info


-or-


 

Live Flight TrackerFlight Track Log ✈ DAL6055 ✈ 16-Apr-2013 ✈ KDTW - KSDF

Flight Track Log - Related Links

Times and Time Zones

All times are in EDT time to prevent confusion due to time zone crossing. See the DAL6055 flight status page for this flight to view local times or setup timezone preferences in your user account.

Time Position Orientation Groundspeed Altitude Reporting Facility
EDT Latitude Longitude Course Direction KTS MPH feet Rate Location/Type
09:10AM 42.2011 -83.3539 180° South 178 205 1,300  Level FAA TRACON SMA TRACON (SMA)
09:11AM 42.1878 -83.3569 190° South 174 200 2,000 1,920 Climbing FAA TRACON SMA TRACON (SMA)
09:11AM 42.1683 -83.3611 189° South 199 229 2,600 1,620 Climbing FAA TRACON SMA TRACON (SMA)
09:11AM 42.1503 -83.3653 190° South 215 247 3,100 1,920 Climbing FAA TRACON SMA TRACON (SMA)
09:12AM 42.1297 -83.3694 189° South 229 264 3,900 2,520 Climbing FAA TRACON SMA TRACON (SMA)
09:12AM 42.1064 -83.3731 187° South 235 270 4,800 2,400 Climbing FAA TRACON SMA TRACON (SMA)
09:12AM 42.0867 -83.3753 185° South 242 278 5,500 2,700 Climbing FAA TRACON SMA TRACON (SMA)
09:13AM 42.0608 -83.3786 185° South 244 281 6,600 2,880 Climbing FAA TRACON SMA TRACON (SMA)
09:13AM 42.0400 -83.3814 186° South 245 282 7,400 2,280 Climbing FAA TRACON SMA TRACON (SMA)
09:13AM 42.0186 -83.3844 186° South 247 284 8,100 2,340 Climbing FAA TRACON SMA TRACON (SMA)
09:14AM 41.8658 -83.5707 180° South  Level Estimated
09:14AM 41.9917 -83.3881 186° South 251 289 9,000  Level FAA TRACON SMA TRACON (SMA)
09:14AM 41.9686 -83.3831 171° South 270 311 9,700 1,680 Climbing FAA TRACON SMA TRACON (SMA)
09:14AM 41.9450 -83.3800 175° South 278 320 10,100 1,020 Climbing FAA TRACON SMA TRACON (SMA)
09:15AM 41.7790 -83.6247 180° South  Level Estimated
09:15AM 41.9136 -83.3758 174° South 299 344 10,400  Level FAA TRACON SMA TRACON (SMA)
09:15AM 41.8861 -83.3719 174° South 319 367 10,500 720 Climbing FAA TRACON SMA TRACON (SMA)
09:15AM 41.8578 -83.3675 173° South 334 384 10,900 1,440 Climbing FAA TRACON SMA TRACON (SMA)
09:16AM 41.6923 -83.6785 180° South  Level Estimated
09:16AM 41.8289 -83.3639 175° South 335 386 11,500  Level FAA TRACON SMA TRACON (SMA)
09:16AM 41.7931 -83.3583 173° South 336 387 12,300 1,920 Climbing FAA TRACON SMA TRACON (SMA)
09:16AM 41.7644 -83.3544 174° South 337 388 12,800 1,620 Climbing FAA TRACON SMA TRACON (SMA)
09:17AM 41.7358 -83.3503 174° South 337 388 13,400 1,980 Climbing FAA TRACON SMA TRACON (SMA)
09:17AM 41.6997 -83.3453 174° South 338 389 14,100 1,740 Climbing FAA TRACON SMA TRACON (SMA)
09:17AM 41.6706 -83.3414 174° South 339 390 14,600 1,500 Climbing FAA TRACON SMA TRACON (SMA)
09:18AM 41.6411 -83.3392 177° South 340 391 15,100 1,620 Climbing FAA TRACON SMA TRACON (SMA)
09:18AM 41.6056 -83.3472 190° South 336 387 15,700 1,620 Climbing FAA TRACON SMA TRACON (SMA)
09:18AM 41.5792 -83.3608 201° Southwest 332 382 16,200 1,620 Climbing FAA TRACON SMA TRACON (SMA)
09:19AM 41.5467 -83.3772 201° Southwest 325 374 16,800 1,200 Climbing FAA TRACON SMA TRACON (SMA)
09:19AM 41.5206 -83.3906 201° Southwest 326 375 17,000 780 Climbing FAA TRACON SMA TRACON (SMA)
09:20AM 41.4636 -83.4211 202° Southwest 333 383 17,600 900 Climbing FAA TRACON SMA TRACON (SMA)
09:20AM 41.4367 -83.4356 202° Southwest 339 390 17,900 900 Climbing FAA TRACON SMA TRACON (SMA)
09:20AM 41.4022 -83.4544 202° Southwest 343 395 18,200 900 Climbing FAA TRACON SMA TRACON (SMA)
09:21AM 41.3742 -83.4697 202° Southwest 351 404 18,500 900 Climbing FAA TRACON SMA TRACON (SMA)
09:21AM 41.3461 -83.4850 202° Southwest 355 409 18,800 420 Climbing FAA TRACON SMA TRACON (SMA)
09:21AM 41.3392 -83.4886 201° Southwest 352 405 18,800 780 Level FAA TRACON SMA TRACON (SMA)
09:23AM 41.2103 -83.5586 202° Southwest 364 419 20,000 900 Climbing Cleveland Center
09:24AM 41.1111 -83.6092 201° Southwest 377 434 20,800 480 Climbing Cleveland Center
09:25AM 41.0136 -83.6625 202° Southwest 383 441 21,000 600 Climbing Cleveland Center
09:26AM 40.8617 -83.7419 202° Southwest 395 455 22,300 780 Climbing Indianapolis Center
09:27AM 40.7608 -83.7958 202° Southwest 389 448 23,000 780 Climbing Indianapolis Center
09:28AM 40.6589 -83.8494 202° Southwest 390 449 24,000 1,200 Climbing Indianapolis Center
09:29AM 40.5592 -83.9014 202° Southwest 385 443 25,600 960 Climbing Indianapolis Center
09:30AM 40.4453 -83.9603 201° Southwest 377 434 26,000 180 Climbing Indianapolis Center
09:31AM 40.3406 -84.0153 202° Southwest 398 458 26,000  Level Indianapolis Center
09:32AM 40.2325 -84.0714 202° Southwest 414 476 26,000  Level Indianapolis Center
09:33AM 40.1231 -84.1300 202° Southwest 421 484 26,000  Level Indianapolis Center
09:34AM 40.0122 -84.1889 202° Southwest 429 494 26,000  Level Indianapolis Center
09:35AM 39.8981 -84.2481 202° Southwest 438 504 26,000  Level Indianapolis Center
09:36AM 39.7642 -84.3175 202° Southwest 441 507 26,000  Level Indianapolis Center
09:37AM 39.6494 -84.3781 202° Southwest 443 510 26,000 -240 Level Indianapolis Center
09:38AM 39.5397 -84.4347 202° Southwest 426 490 25,600 -720 Descending Indianapolis Center
09:39AM 39.4361 -84.4878 202° Southwest 404 465 24,600 -1,140 Descending Indianapolis Center
09:40AM 39.3317 -84.5422 202° Southwest 403 464 23,300 -1,380 Descending Indianapolis Center
09:41AM 39.2256 -84.5967 202° Southwest 405 466 21,800 -1,500 Descending Indianapolis Center
09:43AM 39.1244 -84.6497 202° Southwest 395 455 20,200 -1,680 Descending Indianapolis Center
09:44AM 39.0131 -84.7081 202° Southwest 369 425 18,400 -1,680 Descending Indianapolis Center
09:44AM 38.9833 -84.7333 213° Southwest 354 407 17,900 -1,500 Descending Cincinnati TRACON
09:45AM 38.9000 -84.8167 218° Southwest 344 396 16,200 -1,560 Descending Cincinnati TRACON
09:46AM 38.8583 -84.8567 217° Southwest 347 399 15,300 -1,320 Descending Indianapolis Center
09:47AM 38.7856 -84.9272 217° Southwest 346 398 14,100 -1,140 Descending Indianapolis Center
09:48AM 38.6992 -85.0111 217° Southwest 325 374 13,000 -1,020 Descending Indianapolis Center
09:49AM 38.6250 -85.0828 217° Southwest 328 377 12,100 -1,020 Descending Indianapolis Center
09:50AM 38.5567 -85.1483 217° Southwest 315 362 11,000 -1,260 Descending FAA TRACON SMA TRACON (SMA)
09:50AM 38.5358 -85.1669 215° Southwest 300 345 10,500 -1,560 Descending FAA TRACON SMA TRACON (SMA)
09:50AM 38.5119 -85.1903 217° Southwest 283 326 10,000 -1,080 Descending FAA TRACON SMA TRACON (SMA)
09:51AM 38.4947 -85.2072 218° Southwest 266 306 9,800 -1,320 Descending FAA TRACON SMA TRACON (SMA)
09:51AM 38.4769 -85.2231 215° Southwest 255 293 9,100 -1,800 Descending FAA TRACON SMA TRACON (SMA)
09:51AM 38.4561 -85.2433 217° Southwest 246 283 8,600 -1,200 Descending FAA TRACON SMA TRACON (SMA)
09:52AM 38.4394 -85.2600 218° Southwest 244 281 8,300 -960 Descending FAA TRACON SMA TRACON (SMA)
09:52AM 38.4219 -85.2761 216° Southwest 248 285 8,000 -1,080 Descending FAA TRACON SMA TRACON (SMA)
09:52AM 38.4008 -85.2953 215° Southwest 245 282 7,600 -1,080 Descending FAA TRACON SMA TRACON (SMA)
09:53AM 38.3844 -85.3114 218° Southwest 241 277 7,300 -780 Descending FAA TRACON SMA TRACON (SMA)
09:53AM 38.3683 -85.3272 218° Southwest 240 276 7,100 -900 Descending FAA TRACON SMA TRACON (SMA)
09:53AM 38.3478 -85.3464 216° Southwest 238 274 6,700 -1,080 Descending FAA TRACON SMA TRACON (SMA)
09:54AM 38.3306 -85.3622 216° Southwest 243 280 6,400 -900 Descending FAA TRACON SMA TRACON (SMA)
09:54AM 38.3131 -85.3783 216° Southwest 248 285 6,100 -660 Descending FAA TRACON SMA TRACON (SMA)
09:54AM 38.2961 -85.3947 217° Southwest 250 288 6,000 -300 Descending FAA TRACON SMA TRACON (SMA)
09:55AM 38.2744 -85.4150 216° Southwest 250 288 5,900 -180 Descending FAA TRACON SMA TRACON (SMA)
09:55AM 38.2569 -85.4314 216° Southwest 252 290 5,900  Level FAA TRACON SMA TRACON (SMA)
09:55AM 38.2356 -85.4514 216° Southwest 250 288 5,900  Level FAA TRACON SMA TRACON (SMA)
09:56AM 38.2183 -85.4675 216° Southwest 248 285 5,900 60 Level FAA TRACON SMA TRACON (SMA)
09:56AM 38.1889 -85.4950 216° Southwest 245 282 6,000  Climbing FAA TRACON SMA TRACON (SMA)
09:57AM 38.1764 -85.5075 218° Southwest 246 283 5,900 -180 Descending FAA TRACON SMA TRACON (SMA)
09:57AM 38.1467 -85.5353 216° Southwest 245 282 5,900 60 Level FAA TRACON SMA TRACON (SMA)
09:57AM 38.1361 -85.5633 244° Southwest 248 285 6,000 120 Climbing FAA TRACON SMA TRACON (SMA)
09:58AM 38.1444 -85.5869 294° West 254 292 6,000 -180 Level FAA TRACON SMA TRACON (SMA)
09:58AM 38.1636 -85.6003 331° Northwest 259 298 5,900 -180 Descending FAA TRACON SMA TRACON (SMA)
09:58AM 38.1900 -85.6136 338° Northwest 263 303 5,900  Level FAA TRACON SMA TRACON (SMA)
09:59AM 38.2106 -85.6244 338° Northwest 262 302 5,900  Level FAA TRACON SMA TRACON (SMA)
09:59AM 38.2294 -85.6339 339° North 244 281 5,900 -600 Level FAA TRACON SMA TRACON (SMA)
09:59AM 38.2514 -85.6461 336° Northwest 224 258 5,500 -1,380 Descending FAA TRACON SMA TRACON (SMA)
10:00AM 38.2689 -85.6553 338° Northwest 221 254 5,000 -1,380 Descending FAA TRACON SMA TRACON (SMA)
10:00AM 38.2864 -85.6642 338° Northwest 221 254 4,600 -1,440 Descending FAA TRACON SMA TRACON (SMA)
10:00AM 38.3083 -85.6747 339° North 219 252 4,100 -1,080 Descending FAA TRACON SMA TRACON (SMA)
10:01AM 38.3256 -85.6836 338° Northwest 215 247 3,900 -180 Descending FAA TRACON SMA TRACON (SMA)
10:01AM 38.3431 -85.6922 339° North 217 250 4,000  Climbing FAA TRACON SMA TRACON (SMA)
10:01AM 38.3644 -85.7061 333° Northwest 226 260 3,900  Descending FAA TRACON SMA TRACON (SMA)
10:02AM 38.3711 -85.7261 293° West 222 255 4,000 120 Climbing FAA TRACON SMA TRACON (SMA)
10:02AM 38.3706 -85.7525 268° West 198 228 4,000 -300 Level FAA TRACON SMA TRACON (SMA)
10:02AM 38.3694 -85.7742 266° West 197 227 3,800 -780 Descending FAA TRACON SMA TRACON (SMA)
10:03AM 38.3631 -85.7931 247° West 202 232 3,500 -1,080 Descending FAA TRACON SMA TRACON (SMA)
10:03AM 38.3417 -85.7978 190° South 216 249 3,100 -720 Descending FAA TRACON SMA TRACON (SMA)
10:03AM 38.3233 -85.7939 171° South 218 251 3,000 -420 Descending FAA TRACON SMA TRACON (SMA)
10:04AM 38.3058 -85.7883 166° South 212 244 2,800 -840 Descending FAA TRACON SMA TRACON (SMA)
10:04AM 38.2850 -85.7814 165° South 205 236 2,500 -1,020 Descending FAA TRACON SMA TRACON (SMA)
10:04AM 38.2706 -85.7767 166° South 183 211 2,200 -900 Descending FAA TRACON SMA TRACON (SMA)
10:05AM 38.2583 -85.7725 165° South 156 180 1,900 -900 Descending FAA TRACON SMA TRACON (SMA)